Pagrindinis puslapis
METAR-TAF:

METAR-TAF

Oro uostai :

Poris, Suomija

platuma: 61-28N, ilguma: 021-48E, Aukštis: 13 m

Dabartinis oras

Ataskaita buvo paskelbta 25 minutes, ne 15:20 UTC
Vėjas 9 kt iš Pietvakarių, svyruoja nuo Pietų ir Vakarų
Temperatūra 3°C
Drėgmė 87%
Slėgis 996 hPa
Matomumas 10 km arba daugiau
Mažai debesys ne aukštis 1000 ft
Išsisklaidę debesys ne aukštis 3600 ft

METAR: EFPO 211520Z AUTO 23009KT 190V270 9999 FEW010 SCT036 03/01 Q0996

Laikas: 17:45 (15:45 UTC)

Prognozė

Ataskaita buvo paskelbta 1 valandą ir 14 minutes, ne 14:31 UTC
Prognozė galioja nuo 21 metu 15 UTC su 21 metu 23 UTC
Vėjas 11 kt iš Pietvakarių
Matomumas 10 km arba daugiau
Apsiniaukę ne aukštis 900 ft
Tapsmas
nuo 21 metu 15 UTC su 21 metu 17 UTC
Mažai debesys ne aukštis 1200 ft
Tapsmas
nuo 21 metu 21 UTC su 21 metu 23 UTC
Vėjas 18 kt iš Pietų/Pietvakarių su gūsio iki 34 kt

TAF: EFPO 211431Z 2115/2123 22011KT 9999 OVC009 BECMG 2115/2117 FEW012 BECMG 2121/2123 21018G34KT

Orai ataskaitas ir orų prognozės (METAR, TAF).

turimą stotys yra geltonos ir raudonos taškus žemėlapyje.

Perkelti pele per norėdami pamatyti stoties vardą.

Tada spustelėkite, norėdami matyti oro stebėjimo ir prognozės.

Norėdami pakeisti žemėlapį: spustelėkite ant žalios mygtukų su juodo kryžiaus žemyn,; žalią mygtuką su brūkšneliu, jei norite nutolinti; arba žalių rodyklių gretimoms žemėlapius.


METAR-TAF: